sensor_id;sensor_type;location;lat;lon;timestamp;P1;durP1;ratioP1;P2;durP2;ratioP2
37309;SDS011;23195;47.744;7.358;2023-05-10T00:01:54;3.00;;;0.80;;
37309;SDS011;23195;47.744;7.358;2023-05-10T00:04:35;1.73;;;1.03;;
37309;SDS011;23195;47.744;7.358;2023-05-10T00:07:13;1.90;;;0.90;;
37309;SDS011;23195;47.744;7.358;2023-05-10T00:09:49;1.00;;;0.90;;
37309;SDS011;23195;47.744;7.358;2023-05-10T00:12:28;2.63;;;0.80;;
37309;SDS011;23195;47.744;7.358;2023-05-10T00:15:02;1.00;;;0.97;;
37309;SDS011;23195;47.744;7.358;2023-05-10T00:17:57;1.13;;;1.07;;
37309;SDS011;23195;47.744;7.358;2023-05-10T00:21:00;1.60;;;1.10;;
37309;SDS011;23195;47.744;7.358;2023-05-10T00:23:30;1.97;;;1.10;;
37309;SDS011;23195;47.744;7.358;2023-05-10T00:26:09;2.20;;;1.20;;
37309;SDS011;23195;47.744;7.358;2023-05-10T00:28:43;1.83;;;0.97;;
37309;SDS011;23195;47.744;7.358;2023-05-10T00:31:39;4.50;;;1.20;;
37309;SDS011;23195;47.744;7.358;2023-05-10T00:34:08;1.60;;;1.50;;
37309;SDS011;23195;47.744;7.358;2023-05-10T00:36:39;2.10;;;1.33;;
37309;SDS011;23195;47.744;7.358;2023-05-10T00:39:15;2.37;;;1.10;;
37309;SDS011;23195;47.744;7.358;2023-05-10T00:42:00;2.10;;;1.30;;
37309;SDS011;23195;47.744;7.358;2023-05-10T00:44:36;2.10;;;1.20;;
37309;SDS011;23195;47.744;7.358;2023-05-10T00:47:20;1.53;;;1.30;;
37309;SDS011;23195;47.744;7.358;2023-05-10T00:50:02;4.07;;;1.20;;
37309;SDS011;23195;47.744;7.358;2023-05-10T00:52:31;1.63;;;1.10;;
37309;SDS011;23195;47.744;7.358;2023-05-10T00:55:29;4.10;;;1.30;;
37309;SDS011;23195;47.744;7.358;2023-05-10T00:58:21;4.60;;;1.30;;
37309;SDS011;23195;47.744;7.358;2023-05-10T01:00:53;1.17;;;1.07;;
37309;SDS011;23195;47.744;7.358;2023-05-10T01:03:33;5.50;;;1.80;;
37309;SDS011;23195;47.744;7.358;2023-05-10T01:06:19;1.60;;;1.50;;
37309;SDS011;23195;47.744;7.358;2023-05-10T01:09:13;1.73;;;1.20;;
37309;SDS011;23195;47.744;7.358;2023-05-10T01:11:52;4.23;;;1.20;;
37309;SDS011;23195;47.744;7.358;2023-05-10T01:14:32;2.60;;;1.20;;
37309;SDS011;23195;47.744;7.358;2023-05-10T01:17:20;2.90;;;1.50;;
37309;SDS011;23195;47.744;7.358;2023-05-10T01:20:04;6.17;;;1.30;;
37309;SDS011;23195;47.744;7.358;2023-05-10T01:31:10;4.20;;;1.50;;
37309;SDS011;23195;47.744;7.358;2023-05-10T01:42:49;4.20;;;2.00;;
37309;SDS011;23195;47.744;7.358;2023-05-10T01:48:34;2.20;;;2.00;;
37309;SDS011;23195;47.744;7.358;2023-05-10T01:51:27;2.03;;;1.93;;
37309;SDS011;23195;47.744;7.358;2023-05-10T01:54:09;2.63;;;1.70;;
37309;SDS011;23195;47.744;7.358;2023-05-10T01:57:02;5.23;;;2.00;;
37309;SDS011;23195;47.744;7.358;2023-05-10T01:59:52;5.27;;;2.20;;
37309;SDS011;23195;47.744;7.358;2023-05-10T02:02:35;1.77;;;1.67;;
37309;SDS011;23195;47.744;7.358;2023-05-10T02:05:14;2.27;;;2.07;;
37309;SDS011;23195;47.744;7.358;2023-05-10T02:07:54;2.70;;;2.00;;
37309;SDS011;23195;47.744;7.358;2023-05-10T02:10:59;2.50;;;2.30;;
37309;SDS011;23195;47.744;7.358;2023-05-10T02:13:31;3.07;;;2.07;;
37309;SDS011;23195;47.744;7.358;2023-05-10T02:16:26;2.57;;;2.10;;
37309;SDS011;23195;47.744;7.358;2023-05-10T02:19:11;2.50;;;2.30;;
37309;SDS011;23195;47.744;7.358;2023-05-10T02:21:43;5.50;;;2.33;;
37309;SDS011;23195;47.744;7.358;2023-05-10T02:24:19;3.07;;;2.20;;
37309;SDS011;23195;47.744;7.358;2023-05-10T02:26:53;3.83;;;2.43;;
37309;SDS011;23195;47.744;7.358;2023-05-10T02:29:40;3.83;;;2.17;;
37309;SDS011;23195;47.744;7.358;2023-05-10T02:32:17;3.50;;;2.10;;
37309;SDS011;23195;47.744;7.358;2023-05-10T02:34:54;3.57;;;2.20;;
37309;SDS011;23195;47.744;7.358;2023-05-10T02:37:48;4.47;;;1.90;;
37309;SDS011;23195;47.744;7.358;2023-05-10T02:40:38;1.70;;;1.60;;
37309;SDS011;23195;47.744;7.358;2023-05-10T02:43:12;3.27;;;1.90;;
37309;SDS011;23195;47.744;7.358;2023-05-10T02:45:54;3.37;;;1.70;;
37309;SDS011;23195;47.744;7.358;2023-05-10T02:48:35;1.80;;;1.70;;
37309;SDS011;23195;47.744;7.358;2023-05-10T02:51:13;2.73;;;2.07;;
37309;SDS011;23195;47.744;7.358;2023-05-10T02:54:29;2.33;;;2.13;;
37309;SDS011;23195;47.744;7.358;2023-05-10T02:57:07;5.57;;;2.50;;
37309;SDS011;23195;47.744;7.358;2023-05-10T02:59:43;3.23;;;2.53;;
37309;SDS011;23195;47.744;7.358;2023-05-10T03:02:27;3.93;;;2.80;;
37309;SDS011;23195;47.744;7.358;2023-05-10T03:04:56;2.97;;;2.40;;
37309;SDS011;23195;47.744;7.358;2023-05-10T03:10:36;7.43;;;2.87;;
37309;SDS011;23195;47.744;7.358;2023-05-10T03:13:16;4.73;;;2.40;;
37309;SDS011;23195;47.744;7.358;2023-05-10T03:19:32;3.33;;;2.47;;
37309;SDS011;23195;47.744;7.358;2023-05-10T03:25:28;3.20;;;2.40;;
37309;SDS011;23195;47.744;7.358;2023-05-10T03:28:46;2.93;;;2.63;;
37309;SDS011;23195;47.744;7.358;2023-05-10T03:31:30;2.47;;;2.20;;
37309;SDS011;23195;47.744;7.358;2023-05-10T03:33:58;3.30;;;2.60;;
37309;SDS011;23195;47.744;7.358;2023-05-10T03:36:40;3.13;;;2.07;;
37309;SDS011;23195;47.744;7.358;2023-05-10T03:39:41;3.70;;;2.90;;
37309;SDS011;23195;47.744;7.358;2023-05-10T03:42:07;4.03;;;2.57;;
37309;SDS011;23195;47.744;7.358;2023-05-10T03:44:43;3.37;;;2.70;;
37309;SDS011;23195;47.744;7.358;2023-05-10T03:47:14;3.77;;;3.40;;
37309;SDS011;23195;47.744;7.358;2023-05-10T03:50:20;7.20;;;3.03;;
37309;SDS011;23195;47.744;7.358;2023-05-10T03:52:51;3.40;;;2.80;;
37309;SDS011;23195;47.744;7.358;2023-05-10T03:55:27;4.77;;;2.50;;
37309;SDS011;23195;47.744;7.358;2023-05-10T03:58:03;3.50;;;2.83;;
37309;SDS011;23195;47.744;7.358;2023-05-10T04:00:51;2.80;;;2.60;;
37309;SDS011;23195;47.744;7.358;2023-05-10T04:03:30;5.33;;;2.50;;
37309;SDS011;23195;47.744;7.358;2023-05-10T04:06:23;2.77;;;2.43;;
37309;SDS011;23195;47.744;7.358;2023-05-10T04:09:19;3.27;;;2.37;;
37309;SDS011;23195;47.744;7.358;2023-05-10T04:11:55;3.67;;;2.40;;
37309;SDS011;23195;47.744;7.358;2023-05-10T04:14:44;3.70;;;2.50;;
37309;SDS011;23195;47.744;7.358;2023-05-10T04:17:20;2.13;;;1.93;;
37309;SDS011;23195;47.744;7.358;2023-05-10T04:23:11;2.40;;;2.07;;
37309;SDS011;23195;47.744;7.358;2023-05-10T04:25:47;4.30;;;2.20;;
37309;SDS011;23195;47.744;7.358;2023-05-10T04:28:25;5.07;;;2.57;;
37309;SDS011;23195;47.744;7.358;2023-05-10T04:31:07;4.17;;;2.20;;
37309;SDS011;23195;47.744;7.358;2023-05-10T04:33:34;2.60;;;2.40;;
37309;SDS011;23195;47.744;7.358;2023-05-10T04:36:18;2.37;;;2.17;;
37309;SDS011;23195;47.744;7.358;2023-05-10T04:39:05;3.60;;;2.20;;
37309;SDS011;23195;47.744;7.358;2023-05-10T04:41:35;2.90;;;1.90;;
37309;SDS011;23195;47.744;7.358;2023-05-10T04:44:24;4.93;;;1.80;;
37309;SDS011;23195;47.744;7.358;2023-05-10T04:47:08;2.80;;;1.80;;
37309;SDS011;23195;47.744;7.358;2023-05-10T04:49:40;2.40;;;1.57;;
37309;SDS011;23195;47.744;7.358;2023-05-10T04:52:34;2.93;;;1.70;;
37309;SDS011;23195;47.744;7.358;2023-05-10T04:55:10;2.87;;;1.87;;
37309;SDS011;23195;47.744;7.358;2023-05-10T04:57:51;3.20;;;1.80;;
37309;SDS011;23195;47.744;7.358;2023-05-10T05:00:30;1.80;;;1.60;;
37309;SDS011;23195;47.744;7.358;2023-05-10T05:03:07;2.50;;;1.50;;
37309;SDS011;23195;47.744;7.358;2023-05-10T05:05:49;2.03;;;1.77;;
37309;SDS011;23195;47.744;7.358;2023-05-10T05:08:28;3.17;;;1.70;;
37309;SDS011;23195;47.744;7.358;2023-05-10T05:14:10;2.27;;;1.50;;
37309;SDS011;23195;47.744;7.358;2023-05-10T05:16:46;1.57;;;1.40;;
37309;SDS011;23195;47.744;7.358;2023-05-10T05:19:30;4.93;;;1.60;;
37309;SDS011;23195;47.744;7.358;2023-05-10T05:22:08;3.43;;;1.50;;
37309;SDS011;23195;47.744;7.358;2023-05-10T05:24:54;3.00;;;1.60;;
37309;SDS011;23195;47.744;7.358;2023-05-10T05:27:31;3.37;;;1.87;;
37309;SDS011;23195;47.744;7.358;2023-05-10T05:29:57;3.47;;;1.47;;
37309;SDS011;23195;47.744;7.358;2023-05-10T05:32:44;4.23;;;1.70;;
37309;SDS011;23195;47.744;7.358;2023-05-10T05:35:20;3.77;;;1.53;;
37309;SDS011;23195;47.744;7.358;2023-05-10T05:37:58;4.00;;;1.90;;
37309;SDS011;23195;47.744;7.358;2023-05-10T05:40:28;4.27;;;1.67;;
37309;SDS011;23195;47.744;7.358;2023-05-10T05:43:07;4.77;;;1.77;;
37309;SDS011;23195;47.744;7.358;2023-05-10T05:45:43;2.13;;;1.43;;
37309;SDS011;23195;47.744;7.358;2023-05-10T05:48:11;2.33;;;1.73;;
37309;SDS011;23195;47.744;7.358;2023-05-10T05:51:02;2.07;;;1.40;;
37309;SDS011;23195;47.744;7.358;2023-05-10T05:53:39;2.30;;;1.80;;
37309;SDS011;23195;47.744;7.358;2023-05-10T05:56:10;3.60;;;1.83;;
37309;SDS011;23195;47.744;7.358;2023-05-10T05:58:52;2.97;;;1.70;;
37309;SDS011;23195;47.744;7.358;2023-05-10T06:01:31;6.33;;;2.23;;
37309;SDS011;23195;47.744;7.358;2023-05-10T06:04:18;6.37;;;1.43;;
37309;SDS011;23195;47.744;7.358;2023-05-10T06:07:00;4.67;;;1.40;;
37309;SDS011;23195;47.744;7.358;2023-05-10T06:09:35;3.57;;;1.40;;
37309;SDS011;23195;47.744;7.358;2023-05-10T06:12:11;5.53;;;1.70;;
37309;SDS011;23195;47.744;7.358;2023-05-10T06:14:52;5.80;;;1.40;;
37309;SDS011;23195;47.744;7.358;2023-05-10T06:21:13;1.50;;;1.30;;
37309;SDS011;23195;47.744;7.358;2023-05-10T06:27:29;4.87;;;1.47;;
37309;SDS011;23195;47.744;7.358;2023-05-10T06:30:33;2.97;;;1.67;;
37309;SDS011;23195;47.744;7.358;2023-05-10T06:33:07;4.10;;;1.43;;
37309;SDS011;23195;47.744;7.358;2023-05-10T06:36:00;4.70;;;1.40;;
37309;SDS011;23195;47.744;7.358;2023-05-10T06:38:56;2.43;;;1.40;;
37309;SDS011;23195;47.744;7.358;2023-05-10T06:41:44;3.07;;;1.20;;
37309;SDS011;23195;47.744;7.358;2023-05-10T06:44:42;1.40;;;1.00;;
37309;SDS011;23195;47.744;7.358;2023-05-10T06:47:08;2.23;;;0.80;;
37309;SDS011;23195;47.744;7.358;2023-05-10T06:49:34;1.83;;;0.90;;
37309;SDS011;23195;47.744;7.358;2023-05-10T06:52:00;2.90;;;0.80;;
37309;SDS011;23195;47.744;7.358;2023-05-10T06:54:26;2.17;;;0.70;;
37309;SDS011;23195;47.744;7.358;2023-05-10T06:56:51;4.83;;;0.80;;
37309;SDS011;23195;47.744;7.358;2023-05-10T06:59:18;1.13;;;0.60;;
37309;SDS011;23195;47.744;7.358;2023-05-10T07:01:44;2.97;;;0.93;;
37309;SDS011;23195;47.744;7.358;2023-05-10T07:04:10;2.27;;;0.70;;
37309;SDS011;23195;47.744;7.358;2023-05-10T07:06:36;2.20;;;1.00;;
37309;SDS011;23195;47.744;7.358;2023-05-10T07:09:01;4.13;;;0.80;;
37309;SDS011;23195;47.744;7.358;2023-05-10T07:11:27;2.83;;;0.90;;
37309;SDS011;23195;47.744;7.358;2023-05-10T07:13:53;1.80;;;0.80;;
37309;SDS011;23195;47.744;7.358;2023-05-10T07:16:35;4.50;;;0.80;;
37309;SDS011;23195;47.744;7.358;2023-05-10T07:19:44;1.10;;;0.70;;
37309;SDS011;23195;47.744;7.358;2023-05-10T07:22:25;2.87;;;0.80;;
37309;SDS011;23195;47.744;7.358;2023-05-10T07:25:25;1.53;;;0.70;;
37309;SDS011;23195;47.744;7.358;2023-05-10T07:31:38;3.40;;;0.70;;
37309;SDS011;23195;47.744;7.358;2023-05-10T07:37:59;1.73;;;0.70;;
37309;SDS011;23195;47.744;7.358;2023-05-10T07:43:53;2.70;;;0.77;;
37309;SDS011;23195;47.744;7.358;2023-05-10T07:46:58;3.17;;;0.80;;
37309;SDS011;23195;47.744;7.358;2023-05-10T07:49:25;2.37;;;0.80;;
37309;SDS011;23195;47.744;7.358;2023-05-10T07:55:33;4.87;;;0.80;;
37309;SDS011;23195;47.744;7.358;2023-05-10T08:05:19;4.00;;;0.60;;
37309;SDS011;23195;47.744;7.358;2023-05-10T08:07:50;3.00;;;0.60;;
37309;SDS011;23195;47.744;7.358;2023-05-10T08:10:21;1.87;;;0.40;;
37309;SDS011;23195;47.744;7.358;2023-05-10T08:12:53;3.10;;;0.50;;
37309;SDS011;23195;47.744;7.358;2023-05-10T08:15:42;1.30;;;0.40;;
37309;SDS011;23195;47.744;7.358;2023-05-10T08:18:19;1.47;;;0.50;;
37309;SDS011;23195;47.744;7.358;2023-05-10T08:20:57;1.90;;;0.40;;
37309;SDS011;23195;47.744;7.358;2023-05-10T08:23:36;1.43;;;0.20;;
37309;SDS011;23195;47.744;7.358;2023-05-10T08:26:10;1.10;;;0.40;;
37309;SDS011;23195;47.744;7.358;2023-05-10T08:28:38;0.73;;;0.30;;
37309;SDS011;23195;47.744;7.358;2023-05-10T08:31:13;1.97;;;0.30;;
37309;SDS011;23195;47.744;7.358;2023-05-10T08:33:44;2.43;;;0.40;;
37309;SDS011;23195;47.744;7.358;2023-05-10T08:36:12;1.17;;;0.40;;
37309;SDS011;23195;47.744;7.358;2023-05-10T08:39:12;2.13;;;0.60;;
37309;SDS011;23195;47.744;7.358;2023-05-10T08:41:39;1.83;;;0.53;;
37309;SDS011;23195;47.744;7.358;2023-05-10T08:44:07;2.60;;;0.60;;
37309;SDS011;23195;47.744;7.358;2023-05-10T08:46:46;2.33;;;0.60;;
37309;SDS011;23195;47.744;7.358;2023-05-10T08:49:18;1.77;;;0.60;;
37309;SDS011;23195;47.744;7.358;2023-05-10T08:52:01;2.60;;;0.60;;
37309;SDS011;23195;47.744;7.358;2023-05-10T08:54:41;4.00;;;0.70;;
37309;SDS011;23195;47.744;7.358;2023-05-10T08:57:18;2.93;;;0.40;;
37309;SDS011;23195;47.744;7.358;2023-05-10T09:00:11;1.57;;;0.53;;
37309;SDS011;23195;47.744;7.358;2023-05-10T09:02:49;0.80;;;0.60;;
37309;SDS011;23195;47.744;7.358;2023-05-10T09:05:28;1.40;;;0.60;;
37309;SDS011;23195;47.744;7.358;2023-05-10T09:08:07;4.50;;;0.87;;
37309;SDS011;23195;47.744;7.358;2023-05-10T09:10:41;4.13;;;0.60;;
37309;SDS011;23195;47.744;7.358;2023-05-10T09:13:15;4.10;;;0.67;;
37309;SDS011;23195;47.744;7.358;2023-05-10T09:16:17;1.37;;;0.63;;
37309;SDS011;23195;47.744;7.358;2023-05-10T09:18:46;2.60;;;0.70;;
37309;SDS011;23195;47.744;7.358;2023-05-10T09:21:16;1.17;;;0.50;;
37309;SDS011;23195;47.744;7.358;2023-05-10T09:23:50;2.80;;;0.80;;
37309;SDS011;23195;47.744;7.358;2023-05-10T09:26:24;2.73;;;0.50;;
37309;SDS011;23195;47.744;7.358;2023-05-10T09:29:43;2.23;;;0.60;;
37309;SDS011;23195;47.744;7.358;2023-05-10T09:32:41;4.10;;;0.70;;
37309;SDS011;23195;47.744;7.358;2023-05-10T09:35:17;1.50;;;0.80;;
37309;SDS011;23195;47.744;7.358;2023-05-10T09:38:12;2.47;;;0.80;;
37309;SDS011;23195;47.744;7.358;2023-05-10T09:40:38;4.47;;;0.60;;
37309;SDS011;23195;47.744;7.358;2023-05-10T09:43:24;1.53;;;0.67;;
37309;SDS011;23195;47.744;7.358;2023-05-10T09:46:03;3.97;;;0.77;;
37309;SDS011;23195;47.744;7.358;2023-05-10T09:48:41;2.57;;;0.70;;
37309;SDS011;23195;47.744;7.358;2023-05-10T09:51:22;2.40;;;0.80;;
37309;SDS011;23195;47.744;7.358;2023-05-10T09:54:13;4.33;;;0.80;;
37309;SDS011;23195;47.744;7.358;2023-05-10T09:57:06;5.43;;;0.80;;
37309;SDS011;23195;47.744;7.358;2023-05-10T10:00:11;2.13;;;0.80;;
37309;SDS011;23195;47.744;7.358;2023-05-10T10:05:55;1.70;;;0.67;;
37309;SDS011;23195;47.744;7.358;2023-05-10T10:08:58;3.60;;;0.90;;
37309;SDS011;23195;47.744;7.358;2023-05-10T10:11:39;3.90;;;0.90;;
37309;SDS011;23195;47.744;7.358;2023-05-10T10:14:41;3.30;;;0.80;;
37309;SDS011;23195;47.744;7.358;2023-05-10T10:17:40;1.70;;;0.63;;
37309;SDS011;23195;47.744;7.358;2023-05-10T10:20:39;5.73;;;0.70;;
37309;SDS011;23195;47.744;7.358;2023-05-10T10:26:40;3.93;;;0.80;;
37309;SDS011;23195;47.744;7.358;2023-05-10T10:29:38;3.53;;;0.90;;
37309;SDS011;23195;47.744;7.358;2023-05-10T10:35:18;1.97;;;0.93;;
37309;SDS011;23195;47.744;7.358;2023-05-10T10:44:58;3.10;;;1.00;;
37309;SDS011;23195;47.744;7.358;2023-05-10T10:48:22;3.67;;;0.30;;
37309;SDS011;23195;47.744;7.358;2023-05-10T10:51:11;1.10;;;0.50;;
37309;SDS011;23195;47.744;7.358;2023-05-10T10:54:21;1.87;;;0.40;;
37309;SDS011;23195;47.744;7.358;2023-05-10T10:57:19;2.83;;;0.50;;
37309;SDS011;23195;47.744;7.358;2023-05-10T11:00:27;4.40;;;0.60;;
37309;SDS011;23195;47.744;7.358;2023-05-10T11:03:12;2.10;;;0.50;;
37309;SDS011;23195;47.744;7.358;2023-05-10T11:05:50;1.40;;;0.40;;
37309;SDS011;23195;47.744;7.358;2023-05-10T11:12:07;4.10;;;0.73;;
37309;SDS011;23195;47.744;7.358;2023-05-10T11:15:00;1.00;;;0.57;;
37309;SDS011;23195;47.744;7.358;2023-05-10T11:17:36;2.73;;;0.77;;
37309;SDS011;23195;47.744;7.358;2023-05-10T11:20:18;2.87;;;0.70;;
37309;SDS011;23195;47.744;7.358;2023-05-10T11:23:00;2.73;;;0.60;;
37309;SDS011;23195;47.744;7.358;2023-05-10T11:26:14;2.27;;;1.00;;
37309;SDS011;23195;47.744;7.358;2023-05-10T11:29:01;2.70;;;0.80;;
37309;SDS011;23195;47.744;7.358;2023-05-10T11:31:59;3.73;;;0.80;;
37309;SDS011;23195;47.744;7.358;2023-05-10T11:44:36;3.10;;;0.87;;
37309;SDS011;23195;47.744;7.358;2023-05-10T11:50:11;1.80;;;0.50;;
37309;SDS011;23195;47.744;7.358;2023-05-10T11:52:37;1.67;;;0.60;;
37309;SDS011;23195;47.744;7.358;2023-05-10T11:55:10;3.60;;;0.73;;
37309;SDS011;23195;47.744;7.358;2023-05-10T12:00:59;1.67;;;0.63;;
37309;SDS011;23195;47.744;7.358;2023-05-10T12:03:38;1.27;;;0.40;;
37309;SDS011;23195;47.744;7.358;2023-05-10T12:06:28;1.17;;;0.40;;
37309;SDS011;23195;47.744;7.358;2023-05-10T12:10:00;2.77;;;0.20;;
37309;SDS011;23195;47.744;7.358;2023-05-10T12:22:57;1.37;;;0.40;;
37309;SDS011;23195;47.744;7.358;2023-05-10T12:29:19;0.50;;;0.30;;
37309;SDS011;23195;47.744;7.358;2023-05-10T12:32:00;17.40;;;1.60;;
37309;SDS011;23195;47.744;7.358;2023-05-10T12:34:39;1.50;;;0.30;;
37309;SDS011;23195;47.744;7.358;2023-05-10T12:37:27;0.40;;;0.27;;
37309;SDS011;23195;47.744;7.358;2023-05-10T12:40:06;3.43;;;0.53;;
37309;SDS011;23195;47.744;7.358;2023-05-10T12:42:52;1.40;;;0.30;;
37309;SDS011;23195;47.744;7.358;2023-05-10T12:45:31;2.83;;;0.37;;
37309;SDS011;23195;47.744;7.358;2023-05-10T12:51:27;1.03;;;0.50;;
37309;SDS011;23195;47.744;7.358;2023-05-10T12:54:13;1.87;;;0.40;;
37309;SDS011;23195;47.744;7.358;2023-05-10T12:57:14;0.43;;;0.20;;
37309;SDS011;23195;47.744;7.358;2023-05-10T13:02:55;1.00;;;0.40;;
37309;SDS011;23195;47.744;7.358;2023-05-10T13:05:49;2.43;;;0.40;;
37309;SDS011;23195;47.744;7.358;2023-05-10T13:08:28;0.63;;;0.33;;
37309;SDS011;23195;47.744;7.358;2023-05-10T13:10:58;2.30;;;0.23;;
37309;SDS011;23195;47.744;7.358;2023-05-10T13:13:54;1.07;;;0.40;;
37309;SDS011;23195;47.744;7.358;2023-05-10T13:16:30;2.53;;;0.40;;
37309;SDS011;23195;47.744;7.358;2023-05-10T13:19:13;1.07;;;0.40;;
37309;SDS011;23195;47.744;7.358;2023-05-10T13:21:47;1.27;;;0.40;;
37309;SDS011;23195;47.744;7.358;2023-05-10T13:24:27;2.57;;;0.60;;
37309;SDS011;23195;47.744;7.358;2023-05-10T13:27:40;3.50;;;0.70;;
37309;SDS011;23195;47.744;7.358;2023-05-10T13:30:26;0.97;;;0.40;;
37309;SDS011;23195;47.744;7.358;2023-05-10T13:33:20;0.47;;;0.33;;
37309;SDS011;23195;47.744;7.358;2023-05-10T13:36:11;1.80;;;0.30;;
37309;SDS011;23195;47.744;7.358;2023-05-10T13:39:02;0.77;;;0.40;;
37309;SDS011;23195;47.744;7.358;2023-05-10T13:41:54;0.93;;;0.50;;
37309;SDS011;23195;47.744;7.358;2023-05-10T13:54:36;2.70;;;0.57;;
37309;SDS011;23195;47.744;7.358;2023-05-10T13:57:26;1.47;;;0.50;;
37309;SDS011;23195;47.744;7.358;2023-05-10T14:00:04;0.83;;;0.50;;
37309;SDS011;23195;47.744;7.358;2023-05-10T14:02:59;2.90;;;0.60;;
37309;SDS011;23195;47.744;7.358;2023-05-10T14:12:05;0.53;;;0.40;;
37309;SDS011;23195;47.744;7.358;2023-05-10T14:14:49;0.80;;;0.50;;
37309;SDS011;23195;47.744;7.358;2023-05-10T14:17:33;0.80;;;0.50;;
37309;SDS011;23195;47.744;7.358;2023-05-10T14:23:28;1.53;;;0.60;;
37309;SDS011;23195;47.744;7.358;2023-05-10T14:26:42;1.50;;;0.57;;
37309;SDS011;23195;47.744;7.358;2023-05-10T14:29:20;1.43;;;0.50;;
37309;SDS011;23195;47.744;7.358;2023-05-10T14:32:07;0.73;;;0.37;;
37309;SDS011;23195;47.744;7.358;2023-05-10T14:37:51;0.50;;;0.40;;
37309;SDS011;23195;47.744;7.358;2023-05-10T14:40:29;1.17;;;0.23;;
37309;SDS011;23195;47.744;7.358;2023-05-10T14:43:22;0.90;;;0.40;;
37309;SDS011;23195;47.744;7.358;2023-05-10T14:46:26;0.93;;;0.30;;
37309;SDS011;23195;47.744;7.358;2023-05-10T14:48:55;1.67;;;0.40;;
37309;SDS011;23195;47.744;7.358;2023-05-10T14:52:04;0.63;;;0.30;;
37309;SDS011;23195;47.744;7.358;2023-05-10T14:54:44;0.30;;;0.30;;
37309;SDS011;23195;47.744;7.358;2023-05-10T15:04:55;1.03;;;0.30;;
37309;SDS011;23195;47.744;7.358;2023-05-10T15:10:47;0.57;;;0.40;;
37309;SDS011;23195;47.744;7.358;2023-05-10T15:16:44;1.67;;;0.60;;
37309;SDS011;23195;47.744;7.358;2023-05-10T15:19:35;1.50;;;0.50;;
37309;SDS011;23195;47.744;7.358;2023-05-10T15:22:24;1.23;;;0.40;;
37309;SDS011;23195;47.744;7.358;2023-05-10T15:25:06;1.33;;;0.73;;
37309;SDS011;23195;47.744;7.358;2023-05-10T15:28:00;0.90;;;0.60;;
37309;SDS011;23195;47.744;7.358;2023-05-10T15:35:01;0.80;;;0.40;;
37309;SDS011;23195;47.744;7.358;2023-05-10T15:42:05;1.07;;;0.40;;
37309;SDS011;23195;47.744;7.358;2023-05-10T15:45:32;0.90;;;0.30;;
37309;SDS011;23195;47.744;7.358;2023-05-10T15:48:24;1.27;;;0.50;;
37309;SDS011;23195;47.744;7.358;2023-05-10T15:50:52;1.23;;;0.30;;
37309;SDS011;23195;47.744;7.358;2023-05-10T15:53:23;1.30;;;0.30;;
37309;SDS011;23195;47.744;7.358;2023-05-10T15:55:49;0.90;;;0.40;;
37309;SDS011;23195;47.744;7.358;2023-05-10T15:58:20;0.73;;;0.37;;
37309;SDS011;23195;47.744;7.358;2023-05-10T16:00:46;1.70;;;0.50;;
37309;SDS011;23195;47.744;7.358;2023-05-10T16:03:14;0.50;;;0.40;;
37309;SDS011;23195;47.744;7.358;2023-05-10T16:05:46;2.53;;;0.40;;
37309;SDS011;23195;47.744;7.358;2023-05-10T16:08:23;0.70;;;0.50;;
37309;SDS011;23195;47.744;7.358;2023-05-10T16:14:23;2.17;;;0.50;;
37309;SDS011;23195;47.744;7.358;2023-05-10T16:17:05;0.70;;;0.40;;
37309;SDS011;23195;47.744;7.358;2023-05-10T16:20:02;0.60;;;0.30;;
37309;SDS011;23195;47.744;7.358;2023-05-10T16:22:35;1.97;;;0.60;;
37309;SDS011;23195;47.744;7.358;2023-05-10T16:25:08;0.40;;;0.30;;
37309;SDS011;23195;47.744;7.358;2023-05-10T16:30:50;0.30;;;0.20;;
37309;SDS011;23195;47.744;7.358;2023-05-10T16:33:45;1.80;;;0.20;;
37309;SDS011;23195;47.744;7.358;2023-05-10T16:36:19;0.10;;;0.10;;
37309;SDS011;23195;47.744;7.358;2023-05-10T16:38:59;0.97;;;0.30;;
37309;SDS011;23195;47.744;7.358;2023-05-10T16:41:36;1.57;;;0.20;;
37309;SDS011;23195;47.744;7.358;2023-05-10T16:44:14;0.77;;;0.27;;
37309;SDS011;23195;47.744;7.358;2023-05-10T16:46:47;0.30;;;0.20;;
37309;SDS011;23195;47.744;7.358;2023-05-10T16:49:34;0.70;;;0.33;;
37309;SDS011;23195;47.744;7.358;2023-05-10T16:52:40;0.93;;;0.30;;
37309;SDS011;23195;47.744;7.358;2023-05-10T16:55:39;0.20;;;0.20;;
37309;SDS011;23195;47.744;7.358;2023-05-10T16:58:36;2.93;;;0.50;;
37309;SDS011;23195;47.744;7.358;2023-05-10T17:01:23;0.37;;;0.30;;
37309;SDS011;23195;47.744;7.358;2023-05-10T17:04:21;1.97;;;0.30;;
37309;SDS011;23195;47.744;7.358;2023-05-10T17:06:52;0.40;;;0.27;;
37309;SDS011;23195;47.744;7.358;2023-05-10T17:13:07;0.53;;;0.30;;
37309;SDS011;23195;47.744;7.358;2023-05-10T17:18:34;1.33;;;0.50;;
37309;SDS011;23195;47.744;7.358;2023-05-10T17:21:19;2.80;;;0.60;;
37309;SDS011;23195;47.744;7.358;2023-05-10T17:27:02;0.40;;;0.40;;
37309;SDS011;23195;47.744;7.358;2023-05-10T17:29:40;1.30;;;0.57;;
37309;SDS011;23195;47.744;7.358;2023-05-10T17:32:38;0.23;;;0.20;;
37309;SDS011;23195;47.744;7.358;2023-05-10T17:35:26;0.30;;;0.20;;
37309;SDS011;23195;47.744;7.358;2023-05-10T17:44:21;0.93;;;0.50;;
37309;SDS011;23195;47.744;7.358;2023-05-10T17:46:49;0.83;;;0.40;;
37309;SDS011;23195;47.744;7.358;2023-05-10T17:49:36;1.70;;;0.50;;
37309;SDS011;23195;47.744;7.358;2023-05-10T17:52:18;0.97;;;0.40;;
37309;SDS011;23195;47.744;7.358;2023-05-10T17:55:13;1.80;;;0.73;;
37309;SDS011;23195;47.744;7.358;2023-05-10T17:57:56;2.30;;;1.13;;
37309;SDS011;23195;47.744;7.358;2023-05-10T18:00:53;1.63;;;0.60;;
37309;SDS011;23195;47.744;7.358;2023-05-10T18:07:33;0.73;;;0.73;;
37309;SDS011;23195;47.744;7.358;2023-05-10T18:10:50;0.93;;;0.40;;
37309;SDS011;23195;47.744;7.358;2023-05-10T18:13:53;0.77;;;0.40;;
37309;SDS011;23195;47.744;7.358;2023-05-10T18:20:32;2.70;;;0.50;;
37309;SDS011;23195;47.744;7.358;2023-05-10T18:23:42;0.43;;;0.43;;
37309;SDS011;23195;47.744;7.358;2023-05-10T18:26:31;2.30;;;0.50;;
37309;SDS011;23195;47.744;7.358;2023-05-10T18:32:45;0.93;;;0.40;;
37309;SDS011;23195;47.744;7.358;2023-05-10T18:35:37;0.30;;;0.30;;
37309;SDS011;23195;47.744;7.358;2023-05-10T18:38:46;0.90;;;0.40;;
37309;SDS011;23195;47.744;7.358;2023-05-10T18:41:27;0.63;;;0.40;;
37309;SDS011;23195;47.744;7.358;2023-05-10T18:44:09;2.07;;;0.37;;
37309;SDS011;23195;47.744;7.358;2023-05-10T18:52:58;0.73;;;0.50;;
37309;SDS011;23195;47.744;7.358;2023-05-10T18:55:56;0.70;;;0.57;;
37309;SDS011;23195;47.744;7.358;2023-05-10T19:03:06;1.80;;;0.87;;
37309;SDS011;23195;47.744;7.358;2023-05-10T19:05:30;1.50;;;0.90;;
37309;SDS011;23195;47.744;7.358;2023-05-10T19:08:14;1.23;;;0.63;;
37309;SDS011;23195;47.744;7.358;2023-05-10T19:10:54;0.80;;;0.67;;
37309;SDS011;23195;47.744;7.358;2023-05-10T19:16:58;0.67;;;0.60;;
37309;SDS011;23195;47.744;7.358;2023-05-10T19:23:12;0.90;;;0.63;;
37309;SDS011;23195;47.744;7.358;2023-05-10T19:26:08;0.77;;;0.70;;
37309;SDS011;23195;47.744;7.358;2023-05-10T19:28:53;2.07;;;0.60;;
37309;SDS011;23195;47.744;7.358;2023-05-10T19:31:55;0.93;;;0.60;;
37309;SDS011;23195;47.744;7.358;2023-05-10T19:34:27;1.37;;;0.60;;
37309;SDS011;23195;47.744;7.358;2023-05-10T19:37:21;0.80;;;0.60;;
37309;SDS011;23195;47.744;7.358;2023-05-10T19:40:17;0.93;;;0.70;;
37309;SDS011;23195;47.744;7.358;2023-05-10T19:43:29;1.43;;;0.53;;
37309;SDS011;23195;47.744;7.358;2023-05-10T19:46:32;1.50;;;0.60;;
37309;SDS011;23195;47.744;7.358;2023-05-10T19:49:20;2.60;;;0.77;;
37309;SDS011;23195;47.744;7.358;2023-05-10T19:52:15;1.60;;;0.80;;
37309;SDS011;23195;47.744;7.358;2023-05-10T19:58:48;1.03;;;0.80;;
37309;SDS011;23195;47.744;7.358;2023-05-10T20:01:25;0.87;;;0.70;;
37309;SDS011;23195;47.744;7.358;2023-05-10T20:04:04;2.33;;;0.80;;
37309;SDS011;23195;47.744;7.358;2023-05-10T20:07:04;2.30;;;1.10;;